Big Bear Station Historical Data
Daily Summary for February 23, 2019 Units:  Metric    English   Both
Next Day »
Daily Weekly Monthly Yearly Custom
  High: Low: Average:
Temperature: 5.1 °C -20 °C -8.3 °C
Dew Point: -4.8 °C -21.2 °C -11.8 °C
Humidity: 94% 34% 79%
Wind Speed: 11.7km/h 0km/h 1.4km/h
Wind Gust: -1607.7km/h - -
Wind- - WNW
Pressure: 798.1 hPa 794.7 hPa -
Precipitation: 1.78 mm    
Historical Graphs
 
 
Tabular Data for February 23, 2019
Time Temperature Dew Point Pressure Wind Wind Speed Wind Gust Humidity Rainfall Rate (Hourly)
00:03 -16.5 °C -17.4 °C 794.7 hPa Calm   -1607.7 km/h 93% 0 mm
00:18 -16.8 °C -17.8 °C 794.7 hPa Calm   -1607.7 km/h 92% 0 mm
00:34 -17 °C -18 °C 794.7 hPa Calm   -1607.7 km/h 92% 0 mm
00:49 -17 °C -17.7 °C 795 hPa Calm   -1607.7 km/h 94% 0 mm
01:05 -17.3 °C -18.3 °C 795 hPa Calm   -1607.7 km/h 92% 0 mm
01:20 -17.3 °C -18.3 °C 795 hPa Calm   -1607.7 km/h 92% 0 mm
01:35 -17.2 °C -18.1 °C 795.4 hPa Calm   -1607.7 km/h 93% 0 mm
01:50 -17.9 °C -18.9 °C 795.4 hPa Calm   -1607.7 km/h 92% 0 mm
02:05 -18.1 °C -19.1 °C 795.4 hPa Calm   -1607.7 km/h 92% 0 mm
02:21 -18.5 °C -19.5 °C 795.4 hPa Calm   -1607.7 km/h 92% 0 mm
02:36 -18.8 °C -19.8 °C 795.4 hPa Calm   -1607.7 km/h 92% 0 mm
02:51 -18.5 °C -19.3 °C 795.4 hPa Calm   -1607.7 km/h 93% 0 mm
03:06 -18.8 °C -19.8 °C 795.7 hPa Calm   -1607.7 km/h 92% 0 mm
03:21 -19 °C -20.1 °C 795.4 hPa Calm   -1607.7 km/h 91% 0 mm
03:37 -19.1 °C -20.1 °C 795.7 hPa Calm   -1607.7 km/h 92% 0 mm
03:52 -19.4 °C -20.3 °C 795.7 hPa Calm   -1607.7 km/h 92% 0 mm
04:07 -19.6 °C -20.7 °C 795.7 hPa Calm   -1607.7 km/h 91% 0 mm
04:22 -19.5 °C -20.4 °C 795.7 hPa Calm   -1607.7 km/h 92% 0 mm
04:37 -19.4 °C -20.3 °C 795.7 hPa Calm   -1607.7 km/h 92% 0 mm
04:53 -19.7 °C -20.8 °C 796 hPa Calm   -1607.7 km/h 91% 0 mm
05:08 -19.7 °C -20.7 °C 796 hPa Calm   -1607.7 km/h 92% 0 mm
05:23 -19.8 °C -20.9 °C 796 hPa Calm   -1607.7 km/h 91% 0 mm
05:38 -19.8 °C -20.9 °C 796.4 hPa Calm   -1607.7 km/h 91% 0 mm
05:54 -19.9 °C -21 °C 796.4 hPa Calm   -1607.7 km/h 91% 0 mm
06:09 -19.8 °C -20.9 °C 796.4 hPa Calm   -1607.7 km/h 91% 0 mm
06:24 -20 °C -21.1 °C 796.7 hPa Calm   -1607.7 km/h 91% 0 mm
06:39 -19.9 °C -21 °C 796.7 hPa Calm   -1607.7 km/h 91% 0 mm
06:54 -20 °C -21.2 °C 796.7 hPa Calm   -1607.7 km/h 90% 0 mm
07:10 -19.8 °C -20.9 °C 797.1 hPa Calm   -1607.7 km/h 91% 0 mm
07:25 -19.4 °C -20.5 °C 797.1 hPa Calm   -1607.7 km/h 91% 0 mm
07:40 -19.2 °C -20.3 °C 797.1 hPa Calm   -1607.7 km/h 91% 0 mm
07:55 -18 °C -19 °C 797.4 hPa Calm   -1607.7 km/h 92% 0 mm
08:10 -17.5 °C -18.5 °C 797.4 hPa Calm   -1607.7 km/h 92% 0 mm
08:26 -16.7 °C -17.7 °C 797.7 hPa Calm   -1607.7 km/h 92% 0 mm
08:41 -16 °C -17 °C 797.7 hPa Calm   -1607.7 km/h 92% 0 mm
08:56 -14.5 °C -15.4 °C 797.7 hPa Calm   -1607.7 km/h 93% 0 mm
09:11 -12.8 °C -13.7 °C 797.7 hPa Calm   -1607.7 km/h 93% 0 mm
09:26 -11.4 °C -12.3 °C 797.7 hPa Calm   -1607.7 km/h 93% 0 mm
09:42 -9.7 °C -10.8 °C 797.7 hPa Calm   -1607.7 km/h 92% 0 mm
09:57 -7.2 °C -8.3 °C 797.7 hPa Calm   -1607.7 km/h 92% 0 mm
10:12 -4.3 °C -6.6 °C 797.7 hPa Calm   -1607.7 km/h 84% 0 mm
10:27 -1.2 °C -8.2 °C 797.7 hPa Calm   -1607.7 km/h 59% 0 mm
10:42 0.8 °C -10.4 °C 797.7 hPa NW 3.5 km/h -1607.7 km/h 43% 0 mm
10:58 2.6 °C -11.7 °C 797.7 hPa NNW 11.7 km/h -1607.7 km/h 34% 0 mm
11:13 3.2 °C -10.4 °C 797.7 hPa North 8.5 km/h -1607.7 km/h 36% 0 mm
11:28 3.1 °C -9.8 °C 797.4 hPa NNW 7.6 km/h -1607.7 km/h 38% 0 mm
11:44 3.5 °C -8.8 °C 797.4 hPa NW 6 km/h -1607.7 km/h 40% 0 mm
11:59 3.5 °C -8.6 °C 797.4 hPa South 3.5 km/h -1607.7 km/h 41% 0 mm
12:14 3.6 °C -7.8 °C 797.4 hPa WNW 5.1 km/h -1607.7 km/h 43% 0 mm
12:30 4.3 °C -7.2 °C 797.1 hPa ENE 4.3 km/h -1607.7 km/h 43% 0 mm
12:45 5.1 °C -6.8 °C 797.1 hPa WSW 2.7 km/h -1607.7 km/h 42% 0 mm
13:00 3.9 °C -6.7 °C 797.1 hPa NNW 6.8 km/h -1607.7 km/h 46% 0 mm
13:15 2.5 °C -6.1 °C 796.7 hPa NW 6.8 km/h -1607.7 km/h 53% 0 mm
13:31 2 °C -6.6 °C 797.1 hPa WNW 6.8 km/h -1607.7 km/h 53% 0 mm
13:46 2 °C -6.8 °C 797.1 hPa NW 5.1 km/h -1607.7 km/h 52% 0 mm
14:01 2.8 °C -6.9 °C 797.1 hPa WNW 6 km/h -1607.7 km/h 49% 0 mm
14:16 2.8 °C -5.4 °C 796.7 hPa NW 5.1 km/h -1607.7 km/h 55% 0 mm
14:32 2.1 °C -5.3 °C 796.7 hPa NW 7.6 km/h -1607.7 km/h 58% 0 mm
14:47 1.9 °C -5.3 °C 796.7 hPa NW 6.8 km/h -1607.7 km/h 59% 0 mm
15:02 2 °C -5.6 °C 797.1 hPa NNW 4.3 km/h -1607.7 km/h 57% 0 mm
15:17 1.9 °C -5.7 °C 797.1 hPa West 2.7 km/h -1607.7 km/h 57% 0 mm
15:32 1.6 °C -5.6 °C 797.1 hPa NW 3.5 km/h -1607.7 km/h 59% 0 mm
15:48 1.4 °C -5.3 °C 797.1 hPa NW 3.5 km/h -1607.7 km/h 61% 0 mm
16:03 1 °C -4.8 °C 797.1 hPa NW 4.3 km/h -1607.7 km/h 65% 0 mm
16:18 0.6 °C -4.8 °C 797.1 hPa NW 4.3 km/h -1607.7 km/h 67% 0 mm
16:33 0.4 °C -4.8 °C 797.1 hPa WNW 4.3 km/h -1607.7 km/h 68% 0 mm
16:48 0.2 °C -5 °C 797.1 hPa Calm   -1607.7 km/h 68% 0 mm
17:04 -0.3 °C -5.1 °C 797.1 hPa Calm   -1607.7 km/h 70% 0 mm
17:19 -0.8 °C -5.4 °C 797.1 hPa Calm   -1607.7 km/h 71% 0 mm
17:34 -1.4 °C -5.8 °C 797.1 hPa Calm   -1607.7 km/h 72% 0 mm
17:50 -2.2 °C -5.9 °C 797.1 hPa Calm   -1607.7 km/h 76% 0 mm
18:05 -2.8 °C -6.4 °C 797.4 hPa Calm   -1607.7 km/h 76% 0 mm
18:20 -3.2 °C -5.8 °C 797.4 hPa Calm   -1607.7 km/h 82% 0 mm
18:35 -3.5 °C -6.3 °C 797.4 hPa Calm   -1607.7 km/h 81% 0 mm
18:51 -3.8 °C -5.9 °C 797.1 hPa Calm   -1607.7 km/h 85% 0 mm
19:06 -4.2 °C -6.2 °C 797.4 hPa Calm   -1607.7 km/h 86% 0 mm
19:21 -4.5 °C -6.3 °C 797.4 hPa Calm   -1607.7 km/h 87% 0 mm
19:36 -4.6 °C -6.3 °C 797.4 hPa South 4.3 km/h -1607.7 km/h 88% 0 mm
19:52 -4.7 °C -6.3 °C 797.4 hPa Calm   -1607.7 km/h 89% 0 mm
20:07 -4.8 °C -6.3 °C 797.4 hPa Calm   -1607.7 km/h 89% 0 mm
20:22 -5.2 °C -6.8 °C 797.4 hPa Calm   -1607.7 km/h 89% 0 mm
20:37 -4.9 °C -6.3 °C 797.4 hPa Calm   -1607.7 km/h 90% 0 mm
20:52 -5.2 °C -6.6 °C 797.7 hPa Calm   -1607.7 km/h 90% 0 mm
21:08 -5.4 °C -6.8 °C 797.7 hPa South 2.7 km/h -1607.7 km/h 90% 0 mm
21:23 -5.7 °C -6.9 °C 797.7 hPa Calm   -1607.7 km/h 91% 0 mm
21:38 -5.8 °C -7 °C 798.1 hPa Calm   -1607.7 km/h 91% 0 mm
21:53 -5.9 °C -7.1 °C 797.7 hPa Calm   -1607.7 km/h 91% 0 mm
22:08 -6 °C -7.2 °C 797.7 hPa Calm   -1607.7 km/h 91% 0 mm
22:24 -6.1 °C -7.6 °C 797.7 hPa Calm   -1607.7 km/h 89% 0 mm
22:39 -6.4 °C -7.9 °C 797.7 hPa Calm   -1607.7 km/h 89% 0 mm
22:54 -6.6 °C -8 °C 797.4 hPa Calm   -1607.7 km/h 90% 0 mm
23:09 -6.6 °C -8 °C 797.7 hPa Calm   -1607.7 km/h 90% 0 mm
23:24 -6.6 °C -8 °C 797.4 hPa Calm   -1607.7 km/h 90% 0 mm
23:40 -6.9 °C -8.3 °C 797.4 hPa Calm   -1607.7 km/h 90% 0 mm
23:55 -7.1 °C -8.5 °C 797.4 hPa Calm   -1607.7 km/h 90% 0 mm
Big Bear CA Weather